sensor_id;sensor_type;location;lat;lon;timestamp;pressure;altitude;pressure_sealevel;temperature;humidity
5062;BME280;2351;50.812;12.872;2022-09-02T00:00:03;98345.66;;;11.01;77.60
5062;BME280;2351;50.812;12.872;2022-09-02T00:02:38;98338.94;;;10.97;77.59
5062;BME280;2351;50.812;12.872;2022-09-02T00:05:09;98341.97;;;10.92;77.61
5062;BME280;2351;50.812;12.872;2022-09-02T00:07:41;98345.00;;;10.88;77.80
5062;BME280;2351;50.812;12.872;2022-09-02T00:10:13;98349.44;;;10.87;78.05
5062;BME280;2351;50.812;12.872;2022-09-02T00:12:45;98344.28;;;10.85;78.07
5062;BME280;2351;50.812;12.872;2022-09-02T00:15:17;98334.88;;;10.81;77.94
5062;BME280;2351;50.812;12.872;2022-09-02T00:17:49;98343.78;;;10.80;78.27
5062;BME280;2351;50.812;12.872;2022-09-02T00:20:21;98348.25;;;10.80;78.31
5062;BME280;2351;50.812;12.872;2022-09-02T00:22:53;98352.69;;;10.79;78.57
5062;BME280;2351;50.812;12.872;2022-09-02T00:25:25;98345.84;;;10.77;78.62
5062;BME280;2351;50.812;12.872;2022-09-02T00:27:56;98351.25;;;10.75;78.92
5062;BME280;2351;50.812;12.872;2022-09-02T00:30:29;98350.53;;;10.73;79.07
5062;BME280;2351;50.812;12.872;2022-09-02T00:33:02;98341.88;;;10.71;78.94
5062;BME280;2351;50.812;12.872;2022-09-02T00:35:35;98341.19;;;10.69;78.95
5062;BME280;2351;50.812;12.872;2022-09-02T00:38:06;98341.44;;;10.66;78.95
5062;BME280;2351;50.812;12.872;2022-09-02T00:40:43;98337.34;;;10.62;79.46
5062;BME280;2351;50.812;12.872;2022-09-02T00:43:22;98332.16;;;10.60;79.42
5062;BME280;2351;50.812;12.872;2022-09-02T00:45:54;98333.50;;;10.54;79.50
5062;BME280;2351;50.812;12.872;2022-09-02T00:48:27;98333.72;;;10.51;79.63
5062;BME280;2351;50.812;12.872;2022-09-02T00:50:59;98334.09;;;10.47;79.58
5062;BME280;2351;50.812;12.872;2022-09-02T00:53:32;98332.66;;;10.43;79.95
5062;BME280;2351;50.812;12.872;2022-09-02T00:56:05;98332.91;;;10.39;79.92
5062;BME280;2351;50.812;12.872;2022-09-02T00:58:40;98336.59;;;10.37;80.01
5062;BME280;2351;50.812;12.872;2022-09-02T01:01:12;98335.28;;;10.31;79.99
5062;BME280;2351;50.812;12.872;2022-09-02T01:03:45;98335.41;;;10.30;80.03
5062;BME280;2351;50.812;12.872;2022-09-02T01:06:19;98333.97;;;10.25;80.21
5062;BME280;2351;50.812;12.872;2022-09-02T01:08:56;98330.84;;;10.20;80.34
5062;BME280;2351;50.812;12.872;2022-09-02T01:11:36;98333.59;;;10.19;80.51
5062;BME280;2351;50.812;12.872;2022-09-02T01:14:08;98333.00;;;10.15;80.47
5062;BME280;2351;50.812;12.872;2022-09-02T01:16:43;98328.81;;;10.13;80.61
5062;BME280;2351;50.812;12.872;2022-09-02T01:19:21;98332.41;;;10.12;80.80
5062;BME280;2351;50.812;12.872;2022-09-02T01:21:55;98327.47;;;10.07;80.93
5062;BME280;2351;50.812;12.872;2022-09-02T01:24:29;98328.56;;;10.04;81.10
5062;BME280;2351;50.812;12.872;2022-09-02T01:27:01;98330.59;;;10.01;81.30
5062;BME280;2351;50.812;12.872;2022-09-02T01:29:33;98324.59;;;9.99;81.21
5062;BME280;2351;50.812;12.872;2022-09-02T01:32:04;98323.16;;;9.94;81.39
5062;BME280;2351;50.812;12.872;2022-09-02T01:34:36;98318.81;;;9.93;81.04
5062;BME280;2351;50.812;12.872;2022-09-02T01:37:10;98320.72;;;9.91;81.67
5062;BME280;2351;50.812;12.872;2022-09-02T01:39:41;98324.47;;;9.89;81.62
5062;BME280;2351;50.812;12.872;2022-09-02T01:42:14;98316.78;;;9.86;81.50
5062;BME280;2351;50.812;12.872;2022-09-02T01:44:46;98320.59;;;9.82;81.79
5062;BME280;2351;50.812;12.872;2022-09-02T01:47:20;98323.38;;;9.80;81.76
5062;BME280;2351;50.812;12.872;2022-09-02T01:49:52;98321.69;;;9.79;82.17
5062;BME280;2351;50.812;12.872;2022-09-02T01:52:27;98323.59;;;9.77;82.01
5062;BME280;2351;50.812;12.872;2022-09-02T01:54:59;98314.09;;;9.74;82.34
5062;BME280;2351;50.812;12.872;2022-09-02T01:57:30;98316.88;;;9.73;82.54
5062;BME280;2351;50.812;12.872;2022-09-02T02:00:04;98313.50;;;9.71;82.34
5062;BME280;2351;50.812;12.872;2022-09-02T02:02:35;98311.09;;;9.68;82.50
5062;BME280;2351;50.812;12.872;2022-09-02T02:05:08;98312.03;;;9.67;82.58
5062;BME280;2351;50.812;12.872;2022-09-02T02:07:41;98309.53;;;9.65;82.72
5062;BME280;2351;50.812;12.872;2022-09-02T02:10:16;98306.25;;;9.61;82.97
5062;BME280;2351;50.812;12.872;2022-09-02T02:12:48;98301.09;;;9.60;82.92
5062;BME280;2351;50.812;12.872;2022-09-02T02:15:21;98306.53;;;9.58;82.76
5062;BME280;2351;50.812;12.872;2022-09-02T02:17:53;98299.66;;;9.56;82.94
5062;BME280;2351;50.812;12.872;2022-09-02T02:20:25;98302.66;;;9.51;82.97
5062;BME280;2351;50.812;12.872;2022-09-02T02:22:58;98300.38;;;9.46;83.21
5062;BME280;2351;50.812;12.872;2022-09-02T02:25:30;98304.06;;;9.44;83.21
5062;BME280;2351;50.812;12.872;2022-09-02T02:28:02;98298.78;;;9.44;83.35
5062;BME280;2351;50.812;12.872;2022-09-02T02:30:34;98301.66;;;9.41;83.55
5062;BME280;2351;50.812;12.872;2022-09-02T02:33:05;98294.69;;;9.40;83.53
5062;BME280;2351;50.812;12.872;2022-09-02T02:35:37;98302.75;;;9.38;83.84
5062;BME280;2351;50.812;12.872;2022-09-02T02:38:10;98300.22;;;9.37;83.68
5062;BME280;2351;50.812;12.872;2022-09-02T02:40:42;98298.53;;;9.36;83.60
5062;BME280;2351;50.812;12.872;2022-09-02T02:43:13;98298.63;;;9.34;83.85
5062;BME280;2351;50.812;12.872;2022-09-02T02:45:45;98289.97;;;9.32;84.24
5062;BME280;2351;50.812;12.872;2022-09-02T02:48:16;98292.75;;;9.30;84.13
5062;BME280;2351;50.812;12.872;2022-09-02T02:50:48;98289.38;;;9.28;84.39
5062;BME280;2351;50.812;12.872;2022-09-02T02:53:21;98294.91;;;9.25;84.41
5062;BME280;2351;50.812;12.872;2022-09-02T02:55:53;98293.22;;;9.24;84.38
5062;BME280;2351;50.812;12.872;2022-09-02T02:58:24;98286.47;;;9.20;84.22
5062;BME280;2351;50.812;12.872;2022-09-02T03:00:56;98294.63;;;9.17;84.53
5062;BME280;2351;50.812;12.872;2022-09-02T03:03:28;98289.59;;;9.14;84.51
5062;BME280;2351;50.812;12.872;2022-09-02T03:06:00;98286.22;;;9.12;84.82
5062;BME280;2351;50.812;12.872;2022-09-02T03:08:33;98291.50;;;9.12;84.79
5062;BME280;2351;50.812;12.872;2022-09-02T03:11:06;98296.06;;;9.10;85.09
5062;BME280;2351;50.812;12.872;2022-09-02T03:13:39;98296.16;;;9.08;85.18
5062;BME280;2351;50.812;12.872;2022-09-02T03:16:11;98292.69;;;9.08;85.19
5062;BME280;2351;50.812;12.872;2022-09-02T03:18:42;98289.09;;;9.09;85.06
5062;BME280;2351;50.812;12.872;2022-09-02T03:21:14;98282.13;;;9.08;85.31
5062;BME280;2351;50.812;12.872;2022-09-02T03:23:47;98284.84;;;9.06;85.21
5062;BME280;2351;50.812;12.872;2022-09-02T03:26:21;98282.56;;;9.01;85.51
5062;BME280;2351;50.812;12.872;2022-09-02T03:28:53;98285.56;;;8.97;85.29
5062;BME280;2351;50.812;12.872;2022-09-02T03:31:26;98278.94;;;8.91;85.64
5062;BME280;2351;50.812;12.872;2022-09-02T03:33:58;98277.47;;;8.87;85.65
5062;BME280;2351;50.812;12.872;2022-09-02T03:36:32;98277.69;;;8.84;85.31
5062;BME280;2351;50.812;12.872;2022-09-02T03:39:07;98277.91;;;8.81;85.85
5062;BME280;2351;50.812;12.872;2022-09-02T03:41:40;98279.81;;;8.79;85.92
5062;BME280;2351;50.812;12.872;2022-09-02T03:44:11;98282.47;;;8.79;85.72
5062;BME280;2351;50.812;12.872;2022-09-02T03:46:43;98283.19;;;8.81;85.96
5062;BME280;2351;50.812;12.872;2022-09-02T03:49:15;98281.41;;;8.81;86.17
5062;BME280;2351;50.812;12.872;2022-09-02T03:51:46;98281.50;;;8.80;86.38
5062;BME280;2351;50.812;12.872;2022-09-02T03:54:19;98281.72;;;8.77;86.31
5062;BME280;2351;50.812;12.872;2022-09-02T03:56:51;98283.63;;;8.74;86.24
5062;BME280;2351;50.812;12.872;2022-09-02T03:59:22;98286.41;;;8.73;86.31
5062;BME280;2351;50.812;12.872;2022-09-02T04:01:54;98283.03;;;8.71;86.88
5062;BME280;2351;50.812;12.872;2022-09-02T04:04:26;98284.94;;;8.69;86.46
5062;BME280;2351;50.812;12.872;2022-09-02T04:06:58;98287.69;;;8.67;86.69
5062;BME280;2351;50.812;12.872;2022-09-02T04:09:31;98290.56;;;8.64;86.95
5062;BME280;2351;50.812;12.872;2022-09-02T04:12:03;98288.88;;;8.63;86.73
5062;BME280;2351;50.812;12.872;2022-09-02T04:14:36;98287.31;;;8.61;86.83
5062;BME280;2351;50.812;12.872;2022-09-02T04:17:07;98288.34;;;8.58;86.63
5062;BME280;2351;50.812;12.872;2022-09-02T04:19:39;98297.22;;;8.57;86.82
5062;BME280;2351;50.812;12.872;2022-09-02T04:22:11;98288.56;;;8.55;86.98
5062;BME280;2351;50.812;12.872;2022-09-02T04:24:43;98294.06;;;8.52;86.96
5062;BME280;2351;50.812;12.872;2022-09-02T04:27:15;98289.22;;;8.46;87.23
5062;BME280;2351;50.812;12.872;2022-09-02T04:29:47;98293.84;;;8.42;87.51
5062;BME280;2351;50.812;12.872;2022-09-02T04:32:21;98287.75;;;8.41;87.38
5062;BME280;2351;50.812;12.872;2022-09-02T04:34:53;98293.03;;;8.41;87.23
5062;BME280;2351;50.812;12.872;2022-09-02T04:37:25;98293.84;;;8.42;87.51
5062;BME280;2351;50.812;12.872;2022-09-02T04:39:58;98292.16;;;8.41;87.83
5062;BME280;2351;50.812;12.872;2022-09-02T04:42:29;98290.47;;;8.40;87.65
5062;BME280;2351;50.812;12.872;2022-09-02T04:45:01;98297.44;;;8.41;88.12
5062;BME280;2351;50.812;12.872;2022-09-02T04:47:32;98293.03;;;8.41;87.87
5062;BME280;2351;50.812;12.872;2022-09-02T04:50:05;98294.72;;;8.42;88.07
5062;BME280;2351;50.812;12.872;2022-09-02T04:52:36;98305.28;;;8.42;88.08
5062;BME280;2351;50.812;12.872;2022-09-02T04:55:10;98299.13;;;8.42;88.45
5062;BME280;2351;50.812;12.872;2022-09-02T04:57:41;98297.34;;;8.42;88.46
5062;BME280;2351;50.812;12.872;2022-09-02T05:00:13;98298.91;;;8.45;88.79
5062;BME280;2351;50.812;12.872;2022-09-02T05:02:45;98292.69;;;8.46;88.79
5062;BME280;2351;50.812;12.872;2022-09-02T05:05:17;98298.63;;;8.50;89.02
5062;BME280;2351;50.812;12.872;2022-09-02T05:07:48;98298.41;;;8.53;89.05
5062;BME280;2351;50.812;12.872;2022-09-02T05:10:21;98303.38;;;8.57;89.06
5062;BME280;2351;50.812;12.872;2022-09-02T05:12:53;98305.66;;;8.62;88.99
5062;BME280;2351;50.812;12.872;2022-09-02T05:15:24;98301.00;;;8.66;89.47
5062;BME280;2351;50.812;12.872;2022-09-02T05:17:56;98304.88;;;8.73;89.38
5062;BME280;2351;50.812;12.872;2022-09-02T05:20:28;98300.84;;;8.80;89.84
5062;BME280;2351;50.812;12.872;2022-09-02T05:23:00;98296.91;;;8.86;89.66
5062;BME280;2351;50.812;12.872;2022-09-02T05:25:35;98292.13;;;8.91;90.06
5062;BME280;2351;50.812;12.872;2022-09-02T05:28:07;98298.75;;;8.97;90.25
5062;BME280;2351;50.812;12.872;2022-09-02T05:30:40;98288.56;;;9.03;90.15
5062;BME280;2351;50.812;12.872;2022-09-02T05:33:12;98297.84;;;9.09;90.61
5062;BME280;2351;50.812;12.872;2022-09-02T05:35:44;98286.00;;;9.15;90.97
5062;BME280;2351;50.812;12.872;2022-09-02T05:38:15;98286.47;;;9.20;90.93
5062;BME280;2351;50.812;12.872;2022-09-02T05:40:48;98287.84;;;9.26;91.14
5062;BME280;2351;50.812;12.872;2022-09-02T05:43:20;98283.88;;;9.31;91.27
5062;BME280;2351;50.812;12.872;2022-09-02T05:45:52;98286.75;;;9.40;91.80
5062;BME280;2351;50.812;12.872;2022-09-02T05:48:23;98286.06;;;9.49;91.86
5062;BME280;2351;50.812;12.872;2022-09-02T05:51:13;98279.97;;;9.60;91.92
5062;BME280;2351;50.812;12.872;2022-09-02T05:53:44;98288.88;;;9.70;92.19
5062;BME280;2351;50.812;12.872;2022-09-02T05:56:17;98287.19;;;9.80;92.17
5062;BME280;2351;50.812;12.872;2022-09-02T05:58:49;98281.06;;;9.91;92.50
5062;BME280;2351;50.812;12.872;2022-09-02T06:01:21;98283.47;;;10.06;92.63
5062;BME280;2351;50.812;12.872;2022-09-02T06:03:53;98284.78;;;10.23;93.05
5062;BME280;2351;50.812;12.872;2022-09-02T06:06:27;98274.78;;;10.38;93.24
5062;BME280;2351;50.812;12.872;2022-09-02T06:08:59;98279.50;;;10.57;93.24
5062;BME280;2351;50.812;12.872;2022-09-02T06:11:33;98279.53;;;10.78;93.59
5062;BME280;2351;50.812;12.872;2022-09-02T06:14:04;98287.28;;;11.03;94.19
5062;BME280;2351;50.812;12.872;2022-09-02T06:16:37;98276.19;;;11.30;94.80
5062;BME280;2351;50.812;12.872;2022-09-02T06:19:09;98272.75;;;11.60;94.96
5062;BME280;2351;50.812;12.872;2022-09-02T06:21:41;98268.72;;;11.87;94.92
5062;BME280;2351;50.812;12.872;2022-09-02T06:24:12;98277.78;;;12.16;94.85
5062;BME280;2351;50.812;12.872;2022-09-02T06:26:45;98277.69;;;12.37;94.70
5062;BME280;2351;50.812;12.872;2022-09-02T06:29:18;98273.41;;;12.46;93.06
5062;BME280;2351;50.812;12.872;2022-09-02T06:31:50;98267.44;;;12.63;92.27
5062;BME280;2351;50.812;12.872;2022-09-02T06:34:23;98270.13;;;12.83;92.25
5062;BME280;2351;50.812;12.872;2022-09-02T06:36:56;98267.63;;;13.01;91.76
5062;BME280;2351;50.812;12.872;2022-09-02T06:39:28;98268.97;;;13.15;90.74
5062;BME280;2351;50.812;12.872;2022-09-02T06:42:01;98268.13;;;13.34;90.31
5062;BME280;2351;50.812;12.872;2022-09-02T06:44:32;98263.38;;;13.48;89.38
5062;BME280;2351;50.812;12.872;2022-09-02T06:47:04;98264.78;;;13.52;87.01
5062;BME280;2351;50.812;12.872;2022-09-02T06:49:36;98265.00;;;13.68;86.92
5062;BME280;2351;50.812;12.872;2022-09-02T06:52:07;98268.34;;;13.80;85.03
5062;BME280;2351;50.812;12.872;2022-09-02T06:54:39;98276.44;;;13.89;83.87
5062;BME280;2351;50.812;12.872;2022-09-02T06:57:12;98271.03;;;14.08;84.27
5062;BME280;2351;50.812;12.872;2022-09-02T06:59:44;98269.19;;;14.19;81.98
5062;BME280;2351;50.812;12.872;2022-09-02T07:02:15;98271.19;;;14.35;81.75
5062;BME280;2351;50.812;12.872;2022-09-02T07:04:47;98275.88;;;14.51;79.97
5062;BME280;2351;50.812;12.872;2022-09-02T07:07:38;98269.75;;;14.68;79.34
5062;BME280;2351;50.812;12.872;2022-09-02T07:10:12;98268.25;;;14.84;78.69
5062;BME280;2351;50.812;12.872;2022-09-02T07:12:45;98265.16;;;15.06;78.10
5062;BME280;2351;50.812;12.872;2022-09-02T07:15:17;98274.03;;;15.15;75.21
5062;BME280;2351;50.812;12.872;2022-09-02T07:17:48;98260.09;;;15.21;74.68
5062;BME280;2351;50.812;12.872;2022-09-02T07:20:20;98262.34;;;15.34;73.01
5062;BME280;2351;50.812;12.872;2022-09-02T07:22:52;98258.28;;;15.48;72.29
5062;BME280;2351;50.812;12.872;2022-09-02T07:25:25;98263.09;;;15.45;68.48
5062;BME280;2351;50.812;12.872;2022-09-02T07:27:58;98261.91;;;15.65;67.88
5062;BME280;2351;50.812;12.872;2022-09-02T07:30:30;98256.94;;;15.71;66.06
5062;BME280;2351;50.812;12.872;2022-09-02T07:33:02;98257.81;;;15.79;63.73
5062;BME280;2351;50.812;12.872;2022-09-02T07:35:34;98263.91;;;15.90;63.52
5062;BME280;2351;50.812;12.872;2022-09-02T07:38:07;98258.81;;;16.05;62.22
5062;BME280;2351;50.812;12.872;2022-09-02T07:40:41;98259.19;;;16.10;61.15
5062;BME280;2351;50.812;12.872;2022-09-02T07:43:14;98254.91;;;16.25;60.67
5062;BME280;2351;50.812;12.872;2022-09-02T07:45:46;98259.41;;;16.25;57.86
5062;BME280;2351;50.812;12.872;2022-09-02T07:48:17;98259.06;;;16.20;56.87
5062;BME280;2351;50.812;12.872;2022-09-02T07:50:49;98264.25;;;16.30;57.21
5062;BME280;2351;50.812;12.872;2022-09-02T07:53:21;98257.47;;;16.44;58.02
5062;BME280;2351;50.812;12.872;2022-09-02T07:55:54;98256.50;;;16.61;57.83
5062;BME280;2351;50.812;12.872;2022-09-02T07:58:27;98256.03;;;16.66;57.34
5062;BME280;2351;50.812;12.872;2022-09-02T08:00:59;98250.69;;;16.74;57.59
5062;BME280;2351;50.812;12.872;2022-09-02T08:03:31;98258.41;;;16.94;57.74
5062;BME280;2351;50.812;12.872;2022-09-02T08:06:04;98252.78;;;17.13;57.36
5062;BME280;2351;50.812;12.872;2022-09-02T08:08:36;98252.28;;;17.26;57.38
5062;BME280;2351;50.812;12.872;2022-09-02T08:11:08;98257.44;;;17.36;57.36
5062;BME280;2351;50.812;12.872;2022-09-02T08:13:40;98245.75;;;17.45;56.21
5062;BME280;2351;50.812;12.872;2022-09-02T08:16:12;98256.94;;;17.49;56.47
5062;BME280;2351;50.812;12.872;2022-09-02T08:18:44;98246.25;;;17.41;54.27
5062;BME280;2351;50.812;12.872;2022-09-02T08:21:16;98255.09;;;17.41;53.93
5062;BME280;2351;50.812;12.872;2022-09-02T08:23:48;98255.25;;;17.48;53.90
5062;BME280;2351;50.812;12.872;2022-09-02T08:26:19;98251.91;;;17.54;53.75
5062;BME280;2351;50.812;12.872;2022-09-02T08:28:53;98248.56;;;17.60;54.01
5062;BME280;2351;50.812;12.872;2022-09-02T08:31:25;98249.19;;;17.71;53.79
5062;BME280;2351;50.812;12.872;2022-09-02T08:33:57;98250.88;;;17.80;53.61
5062;BME280;2351;50.812;12.872;2022-09-02T08:36:28;98240.78;;;17.90;53.07
5062;BME280;2351;50.812;12.872;2022-09-02T08:39:01;98245.47;;;17.97;52.82
5062;BME280;2351;50.812;12.872;2022-09-02T08:41:41;98248.50;;;18.02;51.92
5062;BME280;2351;50.812;12.872;2022-09-02T08:44:20;98248.50;;;18.02;50.26
5062;BME280;2351;50.812;12.872;2022-09-02T08:46:57;98247.50;;;18.03;50.56
5062;BME280;2351;50.812;12.872;2022-09-02T08:49:34;98249.00;;;17.97;50.72
5062;BME280;2351;50.812;12.872;2022-09-02T08:52:12;98240.66;;;17.84;50.54
5062;BME280;2351;50.812;12.872;2022-09-02T08:54:50;98240.84;;;17.74;50.67
5062;BME280;2351;50.812;12.872;2022-09-02T08:57:23;98242.84;;;17.80;51.55
5062;BME280;2351;50.812;12.872;2022-09-02T08:59:59;98245.34;;;17.98;50.97
5062;BME280;2351;50.812;12.872;2022-09-02T09:02:38;98241.72;;;18.23;50.85
5062;BME280;2351;50.812;12.872;2022-09-02T09:05:22;98242.69;;;18.30;50.08
5062;BME280;2351;50.812;12.872;2022-09-02T09:08:04;98242.16;;;18.34;48.76
5062;BME280;2351;50.812;12.872;2022-09-02T09:10:45;98233.06;;;18.44;48.94
5062;BME280;2351;50.812;12.872;2022-09-02T09:13:49;98240.06;;;18.53;47.45
5062;BME280;2351;50.812;12.872;2022-09-02T09:16:34;98239.16;;;18.61;47.37
5062;BME280;2351;50.812;12.872;2022-09-02T09:19:12;98233.88;;;18.76;47.63
5062;BME280;2351;50.812;12.872;2022-09-02T09:21:44;98230.25;;;18.69;46.20
5062;BME280;2351;50.812;12.872;2022-09-02T09:24:25;98237.94;;;18.40;45.66
5062;BME280;2351;50.812;12.872;2022-09-02T09:27:01;98242.28;;;18.10;46.32
5062;BME280;2351;50.812;12.872;2022-09-02T09:29:34;98249.53;;;17.84;46.91
5062;BME280;2351;50.812;12.872;2022-09-02T09:32:16;98234.28;;;17.85;48.09
5062;BME280;2351;50.812;12.872;2022-09-02T09:34:55;98232.63;;;17.84;48.36
5062;BME280;2351;50.812;12.872;2022-09-02T09:37:32;98227.25;;;17.84;49.09
5062;BME280;2351;50.812;12.872;2022-09-02T09:40:23;98228.25;;;17.91;48.88
5062;BME280;2351;50.812;12.872;2022-09-02T09:42:56;98220.56;;;17.88;48.28
5062;BME280;2351;50.812;12.872;2022-09-02T09:45:31;98230.25;;;17.89;48.75
5062;BME280;2351;50.812;12.872;2022-09-02T09:48:18;98222.03;;;17.90;48.57
5062;BME280;2351;50.812;12.872;2022-09-02T09:51:12;98217.03;;;18.04;47.77
5062;BME280;2351;50.812;12.872;2022-09-02T09:53:45;98220.44;;;18.21;46.20
5062;BME280;2351;50.812;12.872;2022-09-02T09:56:26;98210.16;;;18.41;46.97
5062;BME280;2351;50.812;12.872;2022-09-02T09:58:59;98218.38;;;18.40;45.35
5062;BME280;2351;50.812;12.872;2022-09-02T10:01:32;98221.50;;;18.20;45.18
5062;BME280;2351;50.812;12.872;2022-09-02T10:04:07;98220.81;;;18.18;45.37
5062;BME280;2351;50.812;12.872;2022-09-02T10:06:41;98218.84;;;18.12;45.20
5062;BME280;2351;50.812;12.872;2022-09-02T10:09:29;98215.50;;;18.10;45.63
5062;BME280;2351;50.812;12.872;2022-09-02T10:12:04;98215.63;;;18.16;46.23
5062;BME280;2351;50.812;12.872;2022-09-02T10:14:38;98206.50;;;18.34;46.31
5062;BME280;2351;50.812;12.872;2022-09-02T10:17:22;98193.44;;;18.62;46.13
5062;BME280;2351;50.812;12.872;2022-09-02T10:20:02;98201.06;;;18.74;45.28
5062;BME280;2351;50.812;12.872;2022-09-02T10:23:04;98188.50;;;18.74;45.22
5062;BME280;2351;50.812;12.872;2022-09-02T10:25:52;98198.78;;;18.86;44.35
5062;BME280;2351;50.812;12.872;2022-09-02T10:28:35;98184.19;;;18.88;43.48
5062;BME280;2351;50.812;12.872;2022-09-02T10:31:16;98185.78;;;19.06;44.10
5062;BME280;2351;50.812;12.872;2022-09-02T10:34:00;98175.19;;;19.27;43.01
5062;BME280;2351;50.812;12.872;2022-09-02T10:36:48;98189.09;;;19.46;43.23
5062;BME280;2351;50.812;12.872;2022-09-02T10:39:38;98178.91;;;19.56;42.53
5062;BME280;2351;50.812;12.872;2022-09-02T10:42:14;98176.66;;;19.75;42.84
5062;BME280;2351;50.812;12.872;2022-09-02T10:44:55;98179.88;;;19.94;42.66
5062;BME280;2351;50.812;12.872;2022-09-02T10:47:35;98182.81;;;19.69;40.69
5062;BME280;2351;50.812;12.872;2022-09-02T10:50:14;98181.19;;;19.45;41.11
5062;BME280;2351;50.812;12.872;2022-09-02T10:53:12;98177.47;;;19.16;40.49
5062;BME280;2351;50.812;12.872;2022-09-02T10:55:51;98182.34;;;18.89;40.69
5062;BME280;2351;50.812;12.872;2022-09-02T10:58:36;98189.25;;;18.36;41.28
5062;BME280;2351;50.812;12.872;2022-09-02T11:01:13;98187.81;;;18.49;41.87
5062;BME280;2351;50.812;12.872;2022-09-02T11:04:02;98180.63;;;18.49;42.02
5062;BME280;2351;50.812;12.872;2022-09-02T11:06:38;98177.09;;;18.49;42.30
5062;BME280;2351;50.812;12.872;2022-09-02T11:09:18;98174.16;;;18.67;42.61
5062;BME280;2351;50.812;12.872;2022-09-02T11:11:56;98173.44;;;18.96;42.85
5062;BME280;2351;50.812;12.872;2022-09-02T11:14:33;98158.34;;;19.34;42.99
5062;BME280;2351;50.812;12.872;2022-09-02T11:17:09;98164.09;;;19.61;41.53
5062;BME280;2351;50.812;12.872;2022-09-02T11:19:50;98168.28;;;19.63;40.29
5062;BME280;2351;50.812;12.872;2022-09-02T11:22:26;98166.78;;;19.31;40.54
5062;BME280;2351;50.812;12.872;2022-09-02T11:25:06;98164.22;;;19.14;41.37
5062;BME280;2351;50.812;12.872;2022-09-02T11:27:42;98160.50;;;19.00;41.52
5062;BME280;2351;50.812;12.872;2022-09-02T11:30:18;98161.56;;;18.91;41.84
5062;BME280;2351;50.812;12.872;2022-09-02T11:32:55;98165.19;;;18.75;41.56
5062;BME280;2351;50.812;12.872;2022-09-02T11:35:32;98153.28;;;18.77;42.21
5062;BME280;2351;50.812;12.872;2022-09-02T11:38:21;98158.28;;;18.80;41.94
5062;BME280;2351;50.812;12.872;2022-09-02T11:41:12;98163.78;;;18.64;42.06
5062;BME280;2351;50.812;12.872;2022-09-02T11:43:49;98154.41;;;18.60;42.73
5062;BME280;2351;50.812;12.872;2022-09-02T11:46:48;98157.06;;;18.68;42.77
5062;BME280;2351;50.812;12.872;2022-09-02T11:52:43;98157.03;;;18.45;42.09
5062;BME280;2351;50.812;12.872;2022-09-02T11:55:23;98152.75;;;18.59;42.43
5062;BME280;2351;50.812;12.872;2022-09-02T11:57:58;98160.63;;;18.60;42.01
5062;BME280;2351;50.812;12.872;2022-09-02T12:00:33;98147.81;;;18.47;41.66
5062;BME280;2351;50.812;12.872;2022-09-02T12:03:12;98153.28;;;18.54;42.79
5062;BME280;2351;50.812;12.872;2022-09-02T12:06:05;98148.03;;;18.61;42.64
5062;BME280;2351;50.812;12.872;2022-09-02T12:08:57;98149.16;;;18.66;43.01
5062;BME280;2351;50.812;12.872;2022-09-02T12:15:08;98137.50;;;19.21;43.05
5062;BME280;2351;50.812;12.872;2022-09-02T12:18:05;98136.59;;;19.59;43.44
5062;BME280;2351;50.812;12.872;2022-09-02T12:21:07;98128.16;;;19.77;42.74
5062;BME280;2351;50.812;12.872;2022-09-02T12:24:04;98132.25;;;19.57;41.37
5062;BME280;2351;50.812;12.872;2022-09-02T12:27:07;98124.69;;;19.46;41.87
5062;BME280;2351;50.812;12.872;2022-09-02T12:29:39;98137.03;;;19.17;41.19
5062;BME280;2351;50.812;12.872;2022-09-02T12:35:34;98126.78;;;19.06;42.00
5062;BME280;2351;50.812;12.872;2022-09-02T12:38:27;98123.53;;;18.87;41.84
5062;BME280;2351;50.812;12.872;2022-09-02T12:41:08;98118.44;;;19.01;41.64
5062;BME280;2351;50.812;12.872;2022-09-02T12:43:51;98106.13;;;19.06;41.48
5062;BME280;2351;50.812;12.872;2022-09-02T12:46:42;98107.81;;;19.07;41.88
5062;BME280;2351;50.812;12.872;2022-09-02T12:49:27;98104.41;;;19.14;42.20
5062;BME280;2351;50.812;12.872;2022-09-02T12:52:05;98101.22;;;19.10;42.28
5062;BME280;2351;50.812;12.872;2022-09-02T12:54:43;98099.56;;;19.09;42.21
5062;BME280;2351;50.812;12.872;2022-09-02T12:57:18;98099.47;;;19.02;42.21
5062;BME280;2351;50.812;12.872;2022-09-02T12:59:57;98100.78;;;19.06;42.40
5062;BME280;2351;50.812;12.872;2022-09-02T13:02:45;98101.31;;;19.02;42.44
5062;BME280;2351;50.812;12.872;2022-09-02T13:05:27;98107.41;;;18.95;42.06
5062;BME280;2351;50.812;12.872;2022-09-02T13:08:16;98105.19;;;18.99;41.70
5062;BME280;2351;50.812;12.872;2022-09-02T13:10:55;98100.47;;;19.01;41.44
5062;BME280;2351;50.812;12.872;2022-09-02T13:17:11;98090.03;;;18.68;40.67
5062;BME280;2351;50.812;12.872;2022-09-02T13:26:17;98084.22;;;18.64;41.78
5062;BME280;2351;50.812;12.872;2022-09-02T13:29:14;98091.06;;;18.67;42.12
5062;BME280;2351;50.812;12.872;2022-09-02T13:32:01;98084.56;;;18.61;41.98
5062;BME280;2351;50.812;12.872;2022-09-02T13:34:42;98083.84;;;18.67;42.39
5062;BME280;2351;50.812;12.872;2022-09-02T13:37:26;98091.34;;;18.72;42.23
5062;BME280;2351;50.812;12.872;2022-09-02T13:40:04;98083.31;;;18.72;42.45
5062;BME280;2351;50.812;12.872;2022-09-02T13:42:36;98081.25;;;18.59;41.48
5062;BME280;2351;50.812;12.872;2022-09-02T13:45:13;98082.91;;;18.60;41.91
5062;BME280;2351;50.812;12.872;2022-09-02T13:47:46;98074.06;;;18.75;42.18
5062;BME280;2351;50.812;12.872;2022-09-02T13:50:21;98073.19;;;18.98;42.21
5062;BME280;2351;50.812;12.872;2022-09-02T13:52:55;98064.88;;;19.07;41.49
5062;BME280;2351;50.812;12.872;2022-09-02T13:55:29;98070.06;;;19.09;41.14
5062;BME280;2351;50.812;12.872;2022-09-02T13:58:03;98063.31;;;18.98;39.98
5062;BME280;2351;50.812;12.872;2022-09-02T14:00:38;98057.66;;;18.93;40.67
5062;BME280;2351;50.812;12.872;2022-09-02T14:03:12;98057.00;;;18.91;39.98
5062;BME280;2351;50.812;12.872;2022-09-02T14:05:47;98064.94;;;18.84;40.33
5062;BME280;2351;50.812;12.872;2022-09-02T14:08:22;98061.13;;;18.93;40.41
5062;BME280;2351;50.812;12.872;2022-09-02T14:10:57;98058.56;;;18.85;39.59
5062;BME280;2351;50.812;12.872;2022-09-02T14:13:31;98058.66;;;18.92;40.25
5062;BME280;2351;50.812;12.872;2022-09-02T14:16:22;98049.09;;;19.13;40.14
5062;BME280;2351;50.812;12.872;2022-09-02T14:19:05;98051.13;;;19.10;39.51